• Join FlightAware (Why Join?)
  • Login
  • US Flag 
09:23PM EDT


 

Airport Tracker/Info


-or-


 

Live Flight TrackerFlight Track Log ✈ UAL4563 ✈ 02-Oct-2013 ✈ KORD - KSAV

Flight Track Log - Related Links

Times and Time Zones

All times are in EDT time to prevent confusion due to time zone crossing. See the UAL4563 flight status page for this flight to view local times or setup timezone preferences in your user account.

Time Position Orientation Groundspeed Altitude Reporting Facility
EDT Latitude Longitude Course Direction KTS MPH feet Rate Location/Type
08:59PM 41.9667 -87.8500 174° South 175 201 3,000  Level Chicago TRACON
09:00PM 41.9167 -87.8000 143° Southeast 210 242 4,600 1,020 Climbing Chicago TRACON
09:01PM 41.8636 -87.7803 165° South 226 260 5,100 480 Climbing Chicago Center
09:02PM 41.6060 -87.6100 173° South  Level Estimated
09:02PM 41.7947 -87.7744 176° South 243 280 5,600  Level Chicago Center
09:03PM 41.5119 -87.5364 169° South  Level Estimated
09:03PM 41.7253 -87.7503 165° South 256 295 7,900  Level Chicago Center
09:04PM 41.4035 -87.5215 174° South  Level FlightAware Approximate
09:04PM 41.6569 -87.7100 156° South 265 305 9,900  Level Chicago Center
09:05PM 41.5828 -87.6658 156° South 286 329 11,400 1,500 Climbing Chicago Center
09:06PM 41.5053 -87.6197 156° South 299 344 13,100 1,080 Climbing Chicago Center
09:07PM 41.4236 -87.5728 157° South 313 360 13,700 540 Climbing Chicago Center
09:08PM 41.3025 -87.5517 173° South 359 413 14,300 600 Climbing Chicago Center
09:09PM 41.1994 -87.5333 172° South 370 426 15,000 840 Climbing Chicago Center
09:10PM 41.0964 -87.5058 169° South 376 433 16,100 1,020 Climbing Chicago Center
09:12PM 40.9958 -87.4789 169° South 372 428 17,200 900 Climbing Chicago Center
09:13PM 40.8947 -87.4500 168° South 372 428 18,000 780 Climbing Chicago Center
09:14PM 40.7922 -87.4247 169° South 374 430 18,900 960 Climbing Chicago Center
09:15PM 40.6689 -87.3925 169° South 376 433 20,100 1,020 Climbing Chicago Center
09:16PM 40.5647 -87.3647 169° South 382 440 21,100 900 Climbing Chicago Center
09:17PM 40.4600 -87.3369 169° South 384 442 22,000 960 Climbing Chicago Center
09:18PM 40.3511 -87.2892 162° South 390 449 23,100 1,200 Climbing Chicago Center
09:19PM 40.2525 -87.2428 160° South 380 437 24,500 1,320 Climbing Chicago Center
09:20PM 40.1578 -87.1914 157° South 370 426 25,900 1,320 Climbing Chicago Center
09:20PM 40.1047 -87.1489 149° Southeast 364 419 26,800 1,380 Climbing Indianapolis Center
09:21PM 40.0194 -87.0806 148° Southeast 362 417 28,200 1,320 Climbing Indianapolis Center
09:22PM 39.9197 -86.9992 148° Southeast 355 409 29,600 1,080 Climbing Indianapolis Center
09:23PM 39.8344 -86.9317 149° Southeast 360 414 30,500 900 Climbing Indianapolis Center
09:24PM 39.7489 -86.8625 148° Southeast 364 419 31,500 900 Climbing Indianapolis Center
09:26PM 39.6622 -86.7906 147° Southeast 371 427 32,400 900 Climbing Indianapolis Center
09:27PM 39.5758 -86.7186 147° Southeast 373 429 33,400 900 Climbing Indianapolis Center
09:28PM 39.4881 -86.6461 147° Southeast 377 434 34,300 780 Climbing Indianapolis Center
09:29PM 39.4008 -86.5733 147° Southeast 377 434 35,000 300 Climbing Indianapolis Center
09:30PM 39.2883 -86.4814 148° Southeast 400 460 35,000 240 Level Indianapolis Center
09:31PM 39.1917 -86.4014 147° Southeast 411 473 35,500 720 Climbing Indianapolis Center
09:32PM 39.0939 -86.3211 147° Southeast 418 481 36,500 720 Climbing Indianapolis Center
09:33PM 38.9997 -86.2436 147° Southeast 408 470 37,000 240 Climbing Indianapolis Center
09:34PM 38.9022 -86.1647 148° Southeast 414 476 37,000  Level Indianapolis Center
09:35PM 38.7872 -86.0728 148° Southeast 425 489 37,000  Level Indianapolis Center
09:36PM 38.6833 -85.9875 147° Southeast 436 502 37,000  Level Indianapolis Center
09:37PM 38.5775 -85.9033 148° Southeast 441 507 37,000  Level Indianapolis Center
09:38PM 38.4722 -85.8194 148° Southeast 443 510 37,000  Level Indianapolis Center
09:39PM 38.3686 -85.7356 148° Southeast 438 504 37,000  Level Indianapolis Center
09:40PM 38.2658 -85.6539 148° Southeast 436 502 37,000  Level Indianapolis Center
09:41PM 38.1647 -85.5731 148° Southeast 430 495 37,000  Level Indianapolis Center
09:42PM 38.0617 -85.4931 149° Southeast 429 494 37,000  Level Indianapolis Center
09:43PM 37.9603 -85.4125 148° Southeast 426 490 37,000  Level Indianapolis Center
09:44PM 37.8592 -85.3333 148° Southeast 426 490 37,000  Level Indianapolis Center
09:45PM 37.7542 -85.2506 148° Southeast 423 487 37,000  Level Indianapolis Center
09:46PM 37.6544 -85.1717 148° Southeast 424 488 37,000  Level Indianapolis Center
09:47PM 37.5539 -85.0950 149° Southeast 423 487 37,000  Level Indianapolis Center
09:48PM 37.4381 -85.0061 149° Southeast 418 481 37,000  Level Indianapolis Center
09:49PM 37.3386 -84.9278 148° Southeast 421 484 37,000  Level Indianapolis Center
09:50PM 37.2389 -84.8519 149° Southeast 420 483 37,000  Level Indianapolis Center
09:51PM 37.1392 -84.7742 148° Southeast 421 484 37,000  Level Indianapolis Center
09:52PM 37.0344 -84.6944 149° Southeast 419 482 37,000  Level Indianapolis Center
09:53PM 36.9344 -84.6194 149° Southeast 419 482 37,000  Level Indianapolis Center
09:54PM 36.8336 -84.5425 149° Southeast 421 484 37,000  Level Indianapolis Center
09:55PM 36.7394 -84.4697 148° Southeast 422 486 37,000  Level Indianapolis Center
09:56PM 36.6394 -84.3942 149° Southeast 421 484 37,000  Level Indianapolis Center
09:57PM 36.5214 -84.3056 149° Southeast 423 487 37,000  Level Indianapolis Center
09:58PM 36.4308 -84.2369 149° Southeast 423 487 37,000  Level Indianapolis Center
09:59PM 36.3281 -84.1614 149° Southeast 425 489 37,000  Level Indianapolis Center
10:00PM 36.2258 -84.0842 149° Southeast 426 490 37,000  Level Indianapolis Center
10:01PM 36.1244 -84.0089 149° Southeast 424 488 37,000  Level Indianapolis Center
10:02PM 36.0019 -83.9181 149° Southeast 422 486 37,000  Level Atlanta Center
10:03PM 35.9017 -83.8439 149° Southeast 422 486 37,000  Level Atlanta Center
10:04PM 35.7994 -83.7700 150° Southeast 422 486 37,000  Level Atlanta Center
10:05PM 35.6969 -83.6961 150° Southeast 422 486 37,000  Level Atlanta Center
10:06PM 35.5967 -83.6225 149° Southeast 423 487 37,000  Level Atlanta Center
10:07PM 35.4942 -83.5464 149° Southeast 423 487 37,000  Level Atlanta Center
10:08PM 35.3914 -83.4706 149° Southeast 423 487 37,000  Level Atlanta Center
10:09PM 35.2889 -83.4000 151° Southeast 423 487 37,000  Level Atlanta Center
10:10PM 35.1864 -83.3297 151° Southeast 423 487 37,000  Level Atlanta Center
10:11PM 35.0856 -83.2519 148° Southeast 423 487 37,000  Level Atlanta Center
10:12PM 34.9808 -83.1769 150° Southeast 423 487 37,000  Level Atlanta Center
10:13PM 34.8653 -83.0919 149° Southeast 433 498 37,000  Level Atlanta Center
10:14PM 34.7625 -83.0147 148° Southeast 433 498 37,000  Level Atlanta Center
10:15PM 34.6597 -82.9428 150° Southeast 428 493 37,000  Level Atlanta Center
10:16PM 34.5567 -82.8711 150° Southeast 435 501 37,000 -540 Level Atlanta Center
10:17PM 34.4517 -82.7969 150° Southeast 435 501 36,000 -1,080 Descending Atlanta Center
10:18PM 34.3422 -82.7206 150° Southeast 444 511 34,900 -1,080 Descending Atlanta Center
10:19PM 34.2331 -82.6469 151° Southeast 444 511 33,900 -1,080 Descending Atlanta Center
10:20PM 34.1361 -82.5756 149° Southeast 435 501 32,800 -1,020 Descending Atlanta Center
10:21PM 34.0394 -82.5072 150° Southeast 435 501 31,900 -1,020 Descending Atlanta Center
10:22PM 33.9319 -82.4339 150° Southeast 435 501 30,800 -1,080 Descending Atlanta Center
10:23PM 33.8244 -82.3583 150° Southeast 440 506 29,800 -1,020 Descending Atlanta Center
10:24PM 33.7147 -82.2806 149° Southeast 458 527 28,800 -1,020 Descending Atlanta Center
10:25PM 33.6031 -82.2031 150° Southeast 458 527 27,800 -1,020 Descending Atlanta Center
10:28PM 33.3178 -82.0078 150° Southeast 459 528 25,300 -1,080 Descending Jacksonville Center
10:29PM 33.2086 -81.9317 150° Southeast 459 528 24,100 -1,680 Descending Jacksonville Center
10:30PM 33.1017 -81.8586 150° Southeast 454 522 22,000 -2,280 Descending Jacksonville Center
10:31PM 33.0031 -81.7928 151° Southeast 434 499 19,600 -2,400 Descending Jacksonville Center
10:32PM 32.9064 -81.7222 148° Southeast 417 480 17,300 -2,580 Descending Jacksonville Center
10:33PM 32.8119 -81.6617 152° Southeast 404 465 14,500 -2,760 Descending Jacksonville Center
10:34PM 32.7172 -81.5986 151° Southeast 396 456 11,800 -1,740 Descending Jacksonville Center
10:35PM 32.6247 -81.5383 151° Southeast 391 450 11,000 -660 Descending Jacksonville Center
10:36PM 32.5386 -81.4903 155° Southeast 350 403 10,500 -960 Descending Jacksonville Center
10:37PM 32.4592 -81.4597 162° South 319 367 9,200 -1,320 Descending Jacksonville Center
10:38PM 32.3836 -81.4289 161° South 291 335 7,900 -1,500 Descending Jacksonville Center
10:39PM 32.3186 -81.4003 160° South 286 329 6,200 -1,800 Descending Jacksonville Center
10:40PM 32.2450 -81.3744 163° South 286 329 4,300 -1,980 Descending Jacksonville Center
10:41PM 32.1739 -81.3464 162° South 265 305 2,300 -1,500 Descending Jacksonville Center
10:42PM 32.1336 -81.3103 143° Southeast 211 243 1,400 -780 Descending Jacksonville Center
10:43PM 32.1269 -81.2686 101° East 143 165 800 -600 Descending Jacksonville Center